Time;durP1;ratioP1;P1;durP2;ratioP2;P2;SDS_P1;SDS_P2;PMS_P1;PMS_P2;Temp;Humidity;BMP_temperature;BMP_pressure;BME280_temperature;BME280_humidity;BME280_pressure;Samples;Min_cycle;Max_cycle;Signal;HPM_P1;HPM_P2
2022/01/06 00:01:51;;;;;;;2.33;1.83;;;;;;;;;;6147442;23;20006;-45
2022/01/06 00:04:16;;;;;;;3.33;1.98;;;;;;;;;;6147181;23;20005;-47
2022/01/06 00:06:42;;;;;;;2.35;2.15;;;;;;;;;;6146638;23;20096;-46
2022/01/06 00:09:09;;;;;;;2.60;2.13;;;;;;;;;;6147103;23;20088;-45
2022/01/06 00:11:35;;;;;;;2.00;1.85;;;;;;;;;;6147053;23;20075;-49
2022/01/06 00:14:10;;;;;;;3.08;1.40;;;;;;;;;;6146899;23;20499;-45
2022/01/06 00:16:46;;;;;;;2.13;2.00;;;;;;;;;;6145957;23;20002;-46
2022/01/06 00:24:22;;;;;;;5.80;1.92;;;;;;;;;;6147101;23;20424;-45
2022/01/06 00:26:48;;;;;;;3.33;2.53;;;;;;;;;;6146516;23;20005;-46
2022/01/06 00:29:14;;;;;;;2.63;1.95;;;;;;;;;;6146343;23;20126;-46
2022/01/06 00:31:40;;;;;;;2.92;2.53;;;;;;;;;;6146687;23;20052;-45
2022/01/06 00:34:10;;;;;;;2.90;2.40;;;;;;;;;;6146902;23;20006;-43
2022/01/06 00:36:35;;;;;;;5.65;2.08;;;;;;;;;;6145693;23;20040;-46
2022/01/06 00:39:00;;;;;;;1.95;1.80;;;;;;;;;;6146844;23;20009;-49
2022/01/06 00:41:25;;;;;;;3.97;2.58;;;;;;;;;;6145716;23;20020;-46
2022/01/06 00:43:51;;;;;;;2.72;1.98;;;;;;;;;;6147488;23;20009;-46
2022/01/06 00:46:16;;;;;;;3.28;2.00;;;;;;;;;;6145388;23;20100;-49
2022/01/06 00:48:41;;;;;;;3.25;1.85;;;;;;;;;;6145370;23;20021;-47
2022/01/06 00:51:09;;;;;;;3.10;1.85;;;;;;;;;;6144710;23;20096;-48
2022/01/06 00:53:34;;;;;;;4.97;1.90;;;;;;;;;;6146396;23;20009;-49
2022/01/06 00:55:59;;;;;;;2.42;2.20;;;;;;;;;;6146912;23;20009;-45
2022/01/06 00:58:24;;;;;;;2.17;1.88;;;;;;;;;;6146471;23;20018;-44
2022/01/06 01:00:50;;;;;;;2.30;1.80;;;;;;;;;;6146260;23;20033;-46
2022/01/06 01:03:20;;;;;;;1.98;1.80;;;;;;;;;;6146746;23;20519;-46
2022/01/06 01:05:47;;;;;;;2.33;1.40;;;;;;;;;;6146601;23;20010;-45
2022/01/06 01:08:12;;;;;;;2.35;1.83;;;;;;;;;;6146449;23;20026;-45
2022/01/06 01:10:38;;;;;;;2.60;2.13;;;;;;;;;;6146666;23;20010;-45
2022/01/06 01:13:04;;;;;;;5.60;1.95;;;;;;;;;;6146913;23;20108;-45
2022/01/06 01:15:32;;;;;;;2.67;2.00;;;;;;;;;;6146044;23;20006;-46
2022/01/06 01:18:05;;;;;;;2.00;1.80;;;;;;;;;;6146454;23;20072;-46
2022/01/06 01:20:31;;;;;;;4.38;1.88;;;;;;;;;;6146562;23;20036;-45
2022/01/06 01:22:56;;;;;;;2.85;1.90;;;;;;;;;;6146424;23;20014;-46
2022/01/06 01:25:21;;;;;;;2.55;1.83;;;;;;;;;;6146576;23;20164;-46
2022/01/06 01:27:46;;;;;;;5.53;1.80;;;;;;;;;;6146360;23;20025;-46
2022/01/06 01:30:14;;;;;;;3.08;2.13;;;;;;;;;;6144446;23;20340;-42
2022/01/06 01:32:42;;;;;;;4.68;2.38;;;;;;;;;;6145951;23;20017;-48
2022/01/06 01:35:09;;;;;;;4.15;1.90;;;;;;;;;;6146948;23;20010;-46
2022/01/06 01:37:34;;;;;;;3.90;2.65;;;;;;;;;;6145736;23;20527;-48
2022/01/06 01:40:00;;;;;;;2.85;2.45;;;;;;;;;;6146872;23;20009;-46
2022/01/06 01:42:26;;;;;;;3.67;2.40;;;;;;;;;;6145433;23;20013;-46
2022/01/06 01:44:52;;;;;;;2.15;1.98;;;;;;;;;;6146849;23;20027;-46
2022/01/06 01:47:27;;;;;;;3.28;2.30;;;;;;;;;;6145910;23;20322;-46
2022/01/06 01:49:58;;;;;;;3.63;2.17;;;;;;;;;;6147372;23;20021;-50
2022/01/06 01:52:23;;;;;;;3.70;2.60;;;;;;;;;;6145891;23;20017;-48
2022/01/06 01:54:48;;;;;;;6.30;2.22;;;;;;;;;;6146558;23;20013;-46
2022/01/06 01:57:13;;;;;;;3.53;2.03;;;;;;;;;;6145690;23;20001;-47
2022/01/06 01:59:39;;;;;;;3.53;2.10;;;;;;;;;;6146600;23;20014;-47
2022/01/06 02:02:04;;;;;;;1.73;1.63;;;;;;;;;;6146337;23;20068;-45
2022/01/06 02:04:30;;;;;;;2.80;2.60;;;;;;;;;;6146288;23;20533;-45
2022/01/06 02:06:55;;;;;;;4.50;2.33;;;;;;;;;;6146213;23;20416;-48
2022/01/06 02:09:20;;;;;;;3.00;2.00;;;;;;;;;;6146164;23;20025;-46
2022/01/06 02:11:46;;;;;;;2.30;1.92;;;;;;;;;;6146294;23;20013;-47
2022/01/06 02:14:11;;;;;;;2.65;2.17;;;;;;;;;;6146524;23;20448;-45
2022/01/06 02:16:37;;;;;;;2.22;1.73;;;;;;;;;;6145015;23;20005;-45
2022/01/06 02:19:03;;;;;;;2.53;1.70;;;;;;;;;;6145106;23;20475;-47
2022/01/06 02:21:28;;;;;;;2.67;2.00;;;;;;;;;;6144716;23;20088;-47
2022/01/06 02:23:53;;;;;;;2.58;2.10;;;;;;;;;;6146333;23;20049;-45
2022/01/06 02:26:19;;;;;;;2.33;1.73;;;;;;;;;;6145476;23;20397;-45
2022/01/06 02:28:44;;;;;;;2.67;2.22;;;;;;;;;;6146520;23;20408;-46
2022/01/06 02:31:09;;;;;;;3.05;2.30;;;;;;;;;;6145752;23;20036;-47
2022/01/06 02:33:35;;;;;;;3.00;2.10;;;;;;;;;;6145318;23;20017;-45
2022/01/06 02:36:00;;;;;;;4.15;2.13;;;;;;;;;;6145306;23;20044;-46
2022/01/06 02:38:26;;;;;;;2.33;2.03;;;;;;;;;;6145744;23;20388;-46
2022/01/06 02:40:51;;;;;;;2.65;2.17;;;;;;;;;;6146250;23;20002;-46
2022/01/06 02:43:18;;;;;;;2.97;1.98;;;;;;;;;;6147709;23;20092;-44
2022/01/06 02:45:44;;;;;;;2.83;1.92;;;;;;;;;;6147587;23;20020;-46
2022/01/06 02:48:09;;;;;;;2.55;2.15;;;;;;;;;;6148087;23;20017;-45
2022/01/06 02:50:36;;;;;;;2.17;2.05;;;;;;;;;;6147140;23;20045;-48
2022/01/06 02:53:02;;;;;;;2.72;2.15;;;;;;;;;;6146212;23;20414;-45
2022/01/06 02:55:27;;;;;;;4.00;1.95;;;;;;;;;;6145240;23;20101;-45
2022/01/06 02:57:52;;;;;;;3.08;2.53;;;;;;;;;;6148285;23;20013;-45
2022/01/06 03:00:18;;;;;;;3.35;2.58;;;;;;;;;;6145479;23;20433;-45
2022/01/06 03:02:45;;;;;;;3.95;1.95;;;;;;;;;;6148282;23;20456;-45
2022/01/06 03:05:11;;;;;;;2.05;1.60;;;;;;;;;;6147449;23;20064;-45
2022/01/06 03:07:37;;;;;;;2.67;2.40;;;;;;;;;;6146985;23;20017;-45
2022/01/06 03:10:04;;;;;;;5.00;2.10;;;;;;;;;;6147351;23;20014;-45
2022/01/06 03:12:34;;;;;;;2.03;1.88;;;;;;;;;;6148043;23;20006;-46
2022/01/06 03:15:00;;;;;;;2.60;1.95;;;;;;;;;;6147301;23;20076;-45
2022/01/06 03:17:25;;;;;;;4.57;1.90;;;;;;;;;;6147868;23;20014;-48
2022/01/06 03:19:50;;;;;;;3.08;2.00;;;;;;;;;;6145306;23;20009;-46
2022/01/06 03:22:16;;;;;;;2.88;1.80;;;;;;;;;;6147643;23;20096;-45
2022/01/06 03:24:41;;;;;;;2.45;2.25;;;;;;;;;;6145573;23;20732;-45
2022/01/06 03:27:07;;;;;;;1.92;1.75;;;;;;;;;;6148030;23;20010;-47
2022/01/06 03:29:32;;;;;;;2.40;2.08;;;;;;;;;;6146642;23;20009;-46
2022/01/06 03:31:58;;;;;;;2.65;1.88;;;;;;;;;;6148028;23;20025;-45
2022/01/06 03:34:24;;;;;;;1.73;1.60;;;;;;;;;;6146766;23;20017;-46
2022/01/06 03:36:49;;;;;;;4.07;2.30;;;;;;;;;;6147783;23;20009;-46
2022/01/06 03:39:15;;;;;;;1.88;1.70;;;;;;;;;;6146879;23;20059;-46
2022/01/06 03:41:40;;;;;;;2.42;1.70;;;;;;;;;;6148257;23;20005;-45
2022/01/06 03:44:05;;;;;;;4.50;2.88;;;;;;;;;;6146958;23;20021;-44
2022/01/06 03:46:30;;;;;;;1.80;1.70;;;;;;;;;;6147554;23;20092;-45
2022/01/06 03:48:56;;;;;;;1.90;1.80;;;;;;;;;;6147367;23;20013;-45
2022/01/06 03:51:23;;;;;;;3.15;2.20;;;;;;;;;;6147138;23;20075;-46
2022/01/06 03:53:48;;;;;;;2.40;1.70;;;;;;;;;;6147044;23;20020;-46
2022/01/06 03:56:14;;;;;;;2.00;1.77;;;;;;;;;;6147169;23;20085;-48
2022/01/06 03:58:40;;;;;;;1.92;1.73;;;;;;;;;;6147026;23;20025;-48
2022/01/06 04:01:06;;;;;;;3.80;2.47;;;;;;;;;;6147693;23;20014;-47
2022/01/06 04:03:31;;;;;;;1.75;1.65;;;;;;;;;;6146771;23;20520;-46
2022/01/06 04:05:56;;;;;;;1.58;1.48;;;;;;;;;;6147439;23;20025;-48
2022/01/06 04:08:21;;;;;;;2.55;1.55;;;;;;;;;;6145991;23;20021;-45
2022/01/06 04:10:47;;;;;;;1.80;1.70;;;;;;;;;;6147856;23;20017;-48
2022/01/06 04:13:12;;;;;;;3.78;2.03;;;;;;;;;;6146405;23;20013;-45
2022/01/06 04:15:37;;;;;;;1.95;1.77;;;;;;;;;;6147270;23;20010;-47
2022/01/06 04:18:02;;;;;;;3.13;1.90;;;;;;;;;;6145661;23;20092;-46
2022/01/06 04:20:28;;;;;;;1.70;1.60;;;;;;;;;;6144196;23;20640;-47
2022/01/06 04:22:53;;;;;;;1.83;1.67;;;;;;;;;;6147390;23;20348;-45
2022/01/06 04:25:18;;;;;;;1.80;1.67;;;;;;;;;;6143859;23;20349;-46
2022/01/06 04:27:43;;;;;;;2.95;1.73;;;;;;;;;;6147181;23;20352;-45
2022/01/06 04:30:09;;;;;;;4.78;3.30;;;;;;;;;;6146929;23;20015;-46
2022/01/06 04:32:35;;;;;;;2.47;2.08;;;;;;;;;;6146744;23;20021;-45
2022/01/06 04:35:00;;;;;;;2.72;2.10;;;;;;;;;;6146160;23;20020;-48
2022/01/06 04:37:27;;;;;;;2.25;2.05;;;;;;;;;;6146889;23;20018;-45
2022/01/06 04:39:52;;;;;;;3.22;1.70;;;;;;;;;;6147024;23;20033;-46
2022/01/06 04:42:17;;;;;;;2.85;1.88;;;;;;;;;;6146202;23;20025;-45
2022/01/06 04:44:43;;;;;;;2.40;1.90;;;;;;;;;;6146021;23;20014;-45
2022/01/06 04:47:08;;;;;;;2.25;1.73;;;;;;;;;;6146793;23;20006;-46
2022/01/06 04:49:33;;;;;;;2.13;1.58;;;;;;;;;;6146767;23;20476;-47
2022/01/06 04:51:58;;;;;;;2.80;1.70;;;;;;;;;;6146885;23;20076;-46
2022/01/06 04:54:24;;;;;;;3.92;2.05;;;;;;;;;;6144964;23;20017;-47
2022/01/06 04:56:49;;;;;;;3.25;2.20;;;;;;;;;;6146849;23;20017;-46
2022/01/06 04:59:14;;;;;;;4.50;2.22;;;;;;;;;;6146614;23;20013;-45
2022/01/06 05:01:39;;;;;;;2.60;2.22;;;;;;;;;;6147573;23;20017;-45
2022/01/06 05:04:05;;;;;;;2.25;2.05;;;;;;;;;;6145784;23;20093;-47
2022/01/06 05:06:31;;;;;;;1.50;1.40;;;;;;;;;;6146749;23;20026;-49
2022/01/06 05:08:56;;;;;;;5.00;2.00;;;;;;;;;;6146053;23;20033;-46
2022/01/06 05:11:21;;;;;;;1.80;1.70;;;;;;;;;;6146577;23;20017;-48
2022/01/06 05:13:47;;;;;;;3.10;1.90;;;;;;;;;;6146136;23;20099;-48
2022/01/06 05:16:12;;;;;;;1.52;1.20;;;;;;;;;;6146527;23;20017;-44
2022/01/06 05:18:38;;;;;;;1.92;1.70;;;;;;;;;;6146583;23;20439;-48
2022/01/06 05:21:06;;;;;;;2.95;2.10;;;;;;;;;;6146827;23;20017;-48
2022/01/06 05:23:32;;;;;;;2.35;1.45;;;;;;;;;;6145439;23;20056;-44
2022/01/06 05:25:57;;;;;;;4.70;2.47;;;;;;;;;;6146807;23;20031;-45
2022/01/06 05:28:22;;;;;;;3.03;1.52;;;;;;;;;;6143827;23;20036;-44
2022/01/06 05:30:48;;;;;;;2.00;1.90;;;;;;;;;;6147024;23;20013;-46
2022/01/06 05:33:13;;;;;;;5.70;2.20;;;;;;;;;;6145273;23;20045;-47
2022/01/06 05:35:38;;;;;;;3.50;1.80;;;;;;;;;;6147285;23;20061;-46
2022/01/06 05:38:04;;;;;;;3.80;2.13;;;;;;;;;;6146299;23;20016;-47
2022/01/06 05:40:29;;;;;;;1.52;1.42;;;;;;;;;;6146282;23;20010;-45
2022/01/06 05:42:56;;;;;;;1.67;1.58;;;;;;;;;;6146535;23;20072;-47
2022/01/06 05:45:22;;;;;;;3.55;2.00;;;;;;;;;;6146363;23;20723;-45
2022/01/06 05:47:47;;;;;;;1.85;1.48;;;;;;;;;;6146336;23;20017;-45
2022/01/06 05:50:12;;;;;;;4.10;2.95;;;;;;;;;;6146232;23;20087;-48
2022/01/06 05:52:38;;;;;;;3.05;2.20;;;;;;;;;;6146331;23;20009;-47
2022/01/06 05:55:03;;;;;;;3.28;2.22;;;;;;;;;;6146808;23;20071;-47
2022/01/06 05:57:29;;;;;;;3.70;2.22;;;;;;;;;;6145989;23;20018;-46
2022/01/06 05:59:54;;;;;;;2.30;2.10;;;;;;;;;;6146706;23;20010;-48
2022/01/06 06:02:19;;;;;;;3.15;2.28;;;;;;;;;;6145618;23;20081;-46
2022/01/06 06:04:45;;;;;;;2.33;2.13;;;;;;;;;;6147057;23;20035;-48
2022/01/06 06:07:11;;;;;;;2.42;1.95;;;;;;;;;;6145696;23;20057;-45
2022/01/06 06:09:36;;;;;;;3.15;2.10;;;;;;;;;;6146027;23;20039;-46
2022/01/06 06:12:02;;;;;;;3.00;2.20;;;;;;;;;;6146362;23;20442;-47
2022/01/06 06:14:27;;;;;;;2.80;1.85;;;;;;;;;;6145969;23;20017;-50
2022/01/06 06:16:52;;;;;;;2.00;1.70;;;;;;;;;;6147477;23;20029;-46
2022/01/06 06:19:17;;;;;;;2.50;2.30;;;;;;;;;;6148285;23;20396;-45
2022/01/06 06:21:43;;;;;;;3.30;1.95;;;;;;;;;;6148221;23;20045;-46
2022/01/06 06:24:08;;;;;;;3.13;1.77;;;;;;;;;;6147077;23;20006;-45
2022/01/06 06:26:34;;;;;;;2.78;1.65;;;;;;;;;;6147207;23;20006;-46
2022/01/06 06:28:59;;;;;;;1.90;1.80;;;;;;;;;;6146645;23;20417;-45
2022/01/06 06:31:24;;;;;;;3.90;2.25;;;;;;;;;;6147581;23;20021;-46
2022/01/06 06:33:50;;;;;;;3.78;3.38;;;;;;;;;;6148655;23;20422;-46
2022/01/06 06:36:15;;;;;;;3.78;2.00;;;;;;;;;;6147546;23;20044;-46
2022/01/06 06:38:40;;;;;;;2.95;2.60;;;;;;;;;;6148270;23;20029;-48
2022/01/06 06:41:05;;;;;;;3.53;2.50;;;;;;;;;;6148348;23;20002;-46
2022/01/06 06:43:31;;;;;;;3.42;2.75;;;;;;;;;;6147515;23;20017;-46
2022/01/06 06:45:56;;;;;;;5.05;3.78;;;;;;;;;;6148563;23;20033;-46
2022/01/06 06:48:22;;;;;;;3.75;2.05;;;;;;;;;;6147315;23;20025;-45
2022/01/06 06:50:47;;;;;;;3.10;1.95;;;;;;;;;;6148577;23;20013;-46
2022/01/06 06:53:12;;;;;;;2.72;2.50;;;;;;;;;;6147263;23;20010;-45
2022/01/06 06:55:38;;;;;;;3.53;2.58;;;;;;;;;;6148359;23;20002;-47
2022/01/06 06:58:03;;;;;;;2.40;2.20;;;;;;;;;;6147513;23;20014;-51
2022/01/06 07:00:29;;;;;;;4.65;2.55;;;;;;;;;;6147227;23;20021;-50
2022/01/06 07:02:54;;;;;;;3.03;1.77;;;;;;;;;;6148363;23;20013;-48
2022/01/06 07:05:20;;;;;;;2.03;1.83;;;;;;;;;;6145260;23;20017;-45
2022/01/06 07:07:46;;;;;;;2.25;1.77;;;;;;;;;;6147978;23;20112;-48
2022/01/06 07:10:11;;;;;;;2.95;1.65;;;;;;;;;;6147833;23;20037;-46
2022/01/06 07:12:37;;;;;;;2.40;2.00;;;;;;;;;;6147882;23;20006;-46
2022/01/06 07:15:03;;;;;;;2.20;2.03;;;;;;;;;;6147645;23;20005;-48
2022/01/06 07:17:28;;;;;;;1.60;1.50;;;;;;;;;;6147321;23;20020;-46
2022/01/06 07:19:53;;;;;;;5.22;2.08;;;;;;;;;;6147734;23;20642;-49
2022/01/06 07:22:18;;;;;;;3.10;1.83;;;;;;;;;;6146762;23;20010;-46
2022/01/06 07:24:44;;;;;;;3.45;2.33;;;;;;;;;;6146772;23;20037;-47
2022/01/06 07:27:09;;;;;;;4.32;2.72;;;;;;;;;;6146772;23;20013;-46
2022/01/06 07:29:34;;;;;;;2.95;2.05;;;;;;;;;;6146426;23;20088;-47
2022/01/06 07:31:59;;;;;;;1.88;1.70;;;;;;;;;;6147803;23;20005;-47
2022/01/06 07:34:24;;;;;;;2.88;2.00;;;;;;;;;;6146805;23;20017;-45
2022/01/06 07:36:50;;;;;;;2.70;1.95;;;;;;;;;;6147746;23;20758;-49
2022/01/06 07:39:15;;;;;;;2.25;1.75;;;;;;;;;;6146835;23;20005;-46
2022/01/06 07:41:40;;;;;;;2.47;1.73;;;;;;;;;;6148114;23;20009;-46
2022/01/06 07:44:07;;;;;;;1.83;1.55;;;;;;;;;;6147458;23;20041;-46
2022/01/06 07:46:35;;;;;;;4.10;1.80;;;;;;;;;;6147175;23;20010;-45
2022/01/06 07:49:01;;;;;;;3.42;2.00;;;;;;;;;;6147895;23;20352;-48
2022/01/06 07:51:30;;;;;;;2.58;1.60;;;;;;;;;;6146118;23;20436;-46
2022/01/06 07:53:55;;;;;;;2.97;1.93;;;;;;;;;;6145983;23;20010;-47
2022/01/06 07:56:20;;;;;;;2.15;1.50;;;;;;;;;;6146557;23;20232;-46
2022/01/06 07:58:46;;;;;;;1.80;1.65;;;;;;;;;;6147762;23;20009;-45
2022/01/06 08:01:11;;;;;;;4.13;1.77;;;;;;;;;;6146623;23;20021;-50
2022/01/06 08:03:37;;;;;;;1.35;1.25;;;;;;;;;;6146955;23;20013;-46
2022/01/06 08:06:02;;;;;;;1.98;1.48;;;;;;;;;;6147352;23;20002;-48
2022/01/06 08:08:28;;;;;;;1.40;1.30;;;;;;;;;;6146263;23;20029;-46
2022/01/06 08:10:53;;;;;;;1.75;1.33;;;;;;;;;;6147641;23;20006;-48
2022/01/06 08:13:18;;;;;;;1.85;1.27;;;;;;;;;;6146353;23;20036;-46
2022/01/06 08:15:43;;;;;;;1.17;1.08;;;;;;;;;;6147923;23;20005;-44
2022/01/06 08:18:09;;;;;;;1.73;0.98;;;;;;;;;;6146978;23;20360;-46
2022/01/06 08:20:36;;;;;;;3.15;1.15;;;;;;;;;;6147041;23;20340;-49
2022/01/06 08:23:01;;;;;;;3.08;1.13;;;;;;;;;;6147352;23;20013;-46
2022/01/06 08:25:26;;;;;;;2.42;1.50;;;;;;;;;;6146604;23;20392;-47
2022/01/06 08:27:51;;;;;;;1.90;1.25;;;;;;;;;;6146467;23;20057;-47
2022/01/06 08:30:17;;;;;;;1.85;1.05;;;;;;;;;;6147014;23;20740;-48
2022/01/06 08:32:42;;;;;;;1.75;1.30;;;;;;;;;;6146902;23;20369;-46
2022/01/06 08:35:08;;;;;;;2.35;1.15;;;;;;;;;;6147070;23;20013;-46
2022/01/06 08:37:33;;;;;;;1.95;1.20;;;;;;;;;;6146652;23;20124;-48
2022/01/06 08:39:58;;;;;;;3.45;1.50;;;;;;;;;;6146770;23;20077;-43
2022/01/06 08:42:24;;;;;;;1.63;1.13;;;;;;;;;;6145070;23;20056;-45
2022/01/06 08:44:49;;;;;;;2.75;1.55;;;;;;;;;;6146982;23;20013;-45
2022/01/06 08:47:15;;;;;;;2.78;1.73;;;;;;;;;;6145364;23;20016;-44
2022/01/06 08:49:41;;;;;;;3.38;2.50;;;;;;;;;;6146678;23;20018;-44
2022/01/06 08:52:06;;;;;;;3.05;1.42;;;;;;;;;;6146935;23;20013;-47
2022/01/06 08:54:32;;;;;;;1.55;1.45;;;;;;;;;;6146696;23;20076;-45
2022/01/06 08:56:57;;;;;;;5.25;1.75;;;;;;;;;;6142383;23;20017;-45
2022/01/06 08:59:22;;;;;;;1.98;1.58;;;;;;;;;;6143595;23;20029;-45
2022/01/06 09:01:48;;;;;;;2.35;1.67;;;;;;;;;;6144212;23;20330;-44
2022/01/06 09:04:13;;;;;;;4.50;1.30;;;;;;;;;;6143664;23;20009;-45
2022/01/06 09:06:38;;;;;;;2.58;1.10;;;;;;;;;;6143408;23;20142;-44
2022/01/06 09:09:04;;;;;;;4.22;2.05;;;;;;;;;;6143688;23;20538;-44
2022/01/06 09:11:29;;;;;;;1.45;1.10;;;;;;;;;;6142627;23;20017;-43
2022/01/06 09:13:54;;;;;;;3.72;1.30;;;;;;;;;;6142410;23;20388;-44
2022/01/06 09:16:20;;;;;;;2.95;1.30;;;;;;;;;;6134813;23;20017;-47
2022/01/06 09:18:45;;;;;;;3.20;1.30;;;;;;;;;;6138898;23;20020;-46
2022/01/06 09:21:10;;;;;;;2.00;1.00;;;;;;;;;;6139094;23;20009;-46
2022/01/06 09:23:36;;;;;;;1.17;1.02;;;;;;;;;;6137847;23;20014;-46
2022/01/06 09:26:01;;;;;;;2.03;1.27;;;;;;;;;;6139188;23;20092;-44
2022/01/06 09:28:26;;;;;;;0.88;0.75;;;;;;;;;;6137538;23;20025;-44
2022/01/06 09:30:53;;;;;;;5.57;1.98;;;;;;;;;;6140286;23;20013;-43
2022/01/06 09:33:19;;;;;;;1.20;1.00;;;;;;;;;;6139308;23;20010;-45
2022/01/06 09:35:45;;;;;;;1.50;1.00;;;;;;;;;;6140078;23;20002;-45
2022/01/06 09:38:10;;;;;;;1.10;0.82;;;;;;;;;;6140305;23;20024;-44
2022/01/06 09:40:37;;;;;;;2.75;2.08;;;;;;;;;;6140065;23;20010;-44
2022/01/06 09:43:03;;;;;;;1.85;1.33;;;;;;;;;;6139389;23;20020;-45
2022/01/06 09:45:28;;;;;;;3.05;1.85;;;;;;;;;;6139081;23;20013;-46
2022/01/06 09:47:53;;;;;;;3.10;1.92;;;;;;;;;;6139385;23;20524;-45
2022/01/06 09:50:19;;;;;;;3.72;2.47;;;;;;;;;;6140829;23;20330;-47
2022/01/06 09:52:45;;;;;;;2.65;2.13;;;;;;;;;;6139276;23;20012;-46
2022/01/06 09:55:10;;;;;;;2.40;1.50;;;;;;;;;;6140593;23;20072;-44
2022/01/06 09:57:36;;;;;;;1.20;1.10;;;;;;;;;;6139256;23;20021;-49
2022/01/06 10:00:02;;;;;;;2.70;1.13;;;;;;;;;;6139980;23;20048;-46
2022/01/06 10:02:31;;;;;;;1.00;0.90;;;;;;;;;;6140709;23;20688;-45
2022/01/06 10:04:57;;;;;;;4.13;1.25;;;;;;;;;;6139855;23;20016;-44
2022/01/06 10:07:23;;;;;;;1.40;1.30;;;;;;;;;;6138812;23;20100;-45
2022/01/06 10:09:49;;;;;;;2.55;1.40;;;;;;;;;;6140966;23;20085;-46
2022/01/06 10:12:14;;;;;;;2.28;1.95;;;;;;;;;;6139629;23;20021;-44
2022/01/06 10:14:44;;;;;;;2.55;1.45;;;;;;;;;;6140275;23;20009;-49
2022/01/06 10:17:09;;;;;;;;;;;;;;;;;;6141032;23;20444;-47
2022/01/06 10:19:36;;;;;;;1.45;1.10;;;;;;;;;;6138912;23;20240;-46
2022/01/06 10:22:01;;;;;;;2.80;1.27;;;;;;;;;;6141198;23;20350;-45
2022/01/06 10:24:27;;;;;;;1.95;1.17;;;;;;;;;;6138202;23;20413;-46
2022/01/06 10:26:57;;;;;;;2.55;1.30;;;;;;;;;;6140904;23;20010;-48
2022/01/06 10:29:24;;;;;;;1.33;1.23;;;;;;;;;;6140092;23;20025;-44
2022/01/06 10:31:49;;;;;;;1.27;1.15;;;;;;;;;;6138815;23;20010;-43
2022/01/06 10:34:15;;;;;;;4.63;1.67;;;;;;;;;;6139953;23;20016;-44
2022/01/06 10:36:40;;;;;;;1.20;1.10;;;;;;;;;;6139704;23;20013;-46
2022/01/06 10:39:08;;;;;;;4.32;1.40;;;;;;;;;;6140016;23;20089;-43
2022/01/06 10:41:33;;;;;;;4.78;1.60;;;;;;;;;;6139656;23;20388;-43
2022/01/06 10:43:59;;;;;;;2.70;1.42;;;;;;;;;;6138346;23;20006;-44
2022/01/06 10:46:38;;;;;;;1.25;1.10;;;;;;;;;;6139387;23;20017;-45
2022/01/06 10:49:11;;;;;;;2.60;1.30;;;;;;;;;;6139951;23;20018;-45
2022/01/06 10:51:38;;;;;;;0.80;0.80;;;;;;;;;;6140436;23;20013;-45
2022/01/06 10:54:04;;;;;;;1.67;1.00;;;;;;;;;;6139297;23;20006;-45
2022/01/06 10:56:29;;;;;;;1.98;0.90;;;;;;;;;;6137737;23;20018;-43
2022/01/06 10:58:58;;;;;;;3.17;1.08;;;;;;;;;;6133510;23;20012;-48
2022/01/06 11:01:24;;;;;;;1.95;0.90;;;;;;;;;;6136105;23;20016;-45
2022/01/06 11:03:49;;;;;;;1.80;1.08;;;;;;;;;;6144862;23;20006;-47
2022/01/06 11:06:14;;;;;;;1.23;1.10;;;;;;;;;;6141244;23;20093;-46
2022/01/06 11:08:41;;;;;;;1.40;1.30;;;;;;;;;;6142954;23;20095;-49
2022/01/06 11:13:41;;;;;;;1.88;1.13;;;;;;;;;;6146577;23;20037;-44
2022/01/06 11:16:07;;;;;;;1.35;1.00;;;;;;;;;;6146778;23;20056;-46
2022/01/06 11:18:32;;;;;;;1.90;1.23;;;;;;;;;;6146698;23;20437;-46
2022/01/06 11:21:03;;;;;;;1.38;0.88;;;;;;;;;;6147226;23;20033;-46
2022/01/06 11:23:30;;;;;;;4.30;1.52;;;;;;;;;;6146287;23;20006;-45
2022/01/06 11:26:03;;;;;;;1.15;0.80;;;;;;;;;;6127377;23;20593;-45
2022/01/06 11:28:30;;;;;;;2.20;1.25;;;;;;;;;;6138019;23;20574;-43
2022/01/06 11:30:55;;;;;;;0.80;0.80;;;;;;;;;;6139623;23;20012;-44
2022/01/06 11:33:20;;;;;;;0.85;0.77;;;;;;;;;;6139792;23;20108;-45
2022/01/06 11:35:56;;;;;;;4.05;1.55;;;;;;;;;;6140904;23;20009;-43
2022/01/06 11:38:26;;;;;;;2.67;1.58;;;;;;;;;;6141512;23;20022;-45
2022/01/06 11:40:52;;;;;;;1.38;1.17;;;;;;;;;;6142511;23;20010;-46
2022/01/06 11:43:18;;;;;;;2.55;1.30;;;;;;;;;;6140329;23;20009;-47
2022/01/06 11:45:43;;;;;;;4.05;1.52;;;;;;;;;;6140866;23;20156;-44
2022/01/06 11:48:10;;;;;;;3.15;1.50;;;;;;;;;;6141126;23;20084;-43
2022/01/06 11:50:39;;;;;;;2.95;1.15;;;;;;;;;;6140105;23;20056;-45
2022/01/06 11:53:05;;;;;;;1.88;1.17;;;;;;;;;;6141436;23;20021;-43
2022/01/06 11:55:33;;;;;;;2.88;1.13;;;;;;;;;;6139507;23;20929;-45
2022/01/06 11:58:18;;;;;;;2.20;1.00;;;;;;;;;;6142076;23;20006;-43
2022/01/06 12:00:57;;;;;;;1.50;1.38;;;;;;;;;;6140550;23;20005;-45
2022/01/06 12:03:33;;;;;;;2.13;1.55;;;;;;;;;;6140585;23;20457;-46
2022/01/06 12:05:58;;;;;;;2.10;1.23;;;;;;;;;;6139374;23;20005;-44
2022/01/06 12:08:34;;;;;;;1.48;1.20;;;;;;;;;;6141483;23;20514;-46
2022/01/06 12:10:59;;;;;;;2.15;0.98;;;;;;;;;;6140986;23;20600;-48
2022/01/06 12:13:24;;;;;;;2.97;1.33;;;;;;;;;;6140486;23;20048;-44
2022/01/06 12:15:51;;;;;;;1.33;1.00;;;;;;;;;;6140571;23;20352;-44
2022/01/06 12:18:20;;;;;;;2.22;1.52;;;;;;;;;;6140901;23;20097;-44
2022/01/06 12:20:47;;;;;;;2.35;1.80;;;;;;;;;;6140445;23;20016;-44
2022/01/06 12:23:12;;;;;;;1.90;1.20;;;;;;;;;;6141373;23;20017;-47
2022/01/06 12:25:37;;;;;;;1.67;1.20;;;;;;;;;;6140273;23;20513;-49
2022/01/06 12:28:03;;;;;;;2.30;1.17;;;;;;;;;;6140997;23;20542;-45
2022/01/06 12:30:33;;;;;;;1.77;1.20;;;;;;;;;;6140363;23;20518;-49
2022/01/06 12:33:00;;;;;;;2.45;1.30;;;;;;;;;;6140741;23;20807;-45
2022/01/06 12:35:35;;;;;;;2.08;1.05;;;;;;;;;;6139170;23;20017;-48
2022/01/06 12:38:00;;;;;;;2.10;1.13;;;;;;;;;;6140193;23;20400;-48
2022/01/06 12:40:33;;;;;;;2.92;1.20;;;;;;;;;;6140501;23;20017;-45
2022/01/06 12:42:58;;;;;;;2.20;1.40;;;;;;;;;;6133846;23;20359;-45
2022/01/06 12:45:23;;;;;;;1.40;1.27;;;;;;;;;;6137563;23;20168;-46
2022/01/06 12:47:49;;;;;;;2.92;1.35;;;;;;;;;;6137749;23;20013;-47
2022/01/06 12:50:14;;;;;;;3.22;1.30;;;;;;;;;;6139229;23;20515;-46
2022/01/06 12:52:44;;;;;;;1.50;1.13;;;;;;;;;;6139402;23;20637;-46
2022/01/06 12:55:10;;;;;;;2.22;1.20;;;;;;;;;;6138766;23;20027;-47
2022/01/06 12:57:37;;;;;;;3.92;1.13;;;;;;;;;;6139896;23;20009;-47
2022/01/06 13:00:09;;;;;;;1.77;1.30;;;;;;;;;;6140040;23;20013;-46
2022/01/06 13:02:34;;;;;;;2.55;1.05;;;;;;;;;;6140023;23;20006;-45
2022/01/06 13:05:02;;;;;;;1.48;0.90;;;;;;;;;;6141118;23;20009;-47
2022/01/06 13:07:28;;;;;;;3.03;1.33;;;;;;;;;;6138311;23;20028;-46
2022/01/06 13:09:57;;;;;;;2.55;1.20;;;;;;;;;;6139467;23;20014;-45
2022/01/06 13:12:23;;;;;;;1.40;1.20;;;;;;;;;;6141175;23;20017;-46
2022/01/06 13:14:52;;;;;;;2.53;1.27;;;;;;;;;;6139591;23;20009;-45
2022/01/06 13:17:23;;;;;;;2.53;1.33;;;;;;;;;;6139553;23;20015;-50
2022/01/06 13:19:53;;;;;;;3.00;2.45;;;;;;;;;;6140788;23;20105;-47
2022/01/06 13:22:35;;;;;;;1.98;1.52;;;;;;;;;;6139036;23;20255;-49
2022/01/06 13:25:08;;;;;;;4.22;1.50;;;;;;;;;;6138501;23;20009;-46
2022/01/06 13:27:33;;;;;;;1.27;1.08;;;;;;;;;;6135764;23;20045;-47
2022/01/06 13:29:58;;;;;;;2.35;1.48;;;;;;;;;;6138582;23;20017;-46
2022/01/06 13:32:29;;;;;;;4.13;1.55;;;;;;;;;;6139445;23;20014;-46
2022/01/06 13:35:21;;;;;;;1.95;1.67;;;;;;;;;;6139666;23;20575;-45
2022/01/06 13:37:46;;;;;;;2.20;1.20;;;;;;;;;;6133727;23;20084;-45
2022/01/06 13:40:12;;;;;;;1.48;1.25;;;;;;;;;;6137405;23;20029;-43
2022/01/06 13:42:39;;;;;;;1.33;1.15;;;;;;;;;;6139673;23;20032;-45
2022/01/06 13:45:14;;;;;;;1.00;1.00;;;;;;;;;;6140449;23;20010;-46
2022/01/06 13:53:01;;;;;;;1.75;1.33;;;;;;;;;;6139327;23;20011;-47
2022/01/06 13:55:26;;;;;;;4.97;1.52;;;;;;;;;;6135203;23;20017;-48
2022/01/06 13:57:52;;;;;;;2.28;1.40;;;;;;;;;;6138692;23;20016;-49
2022/01/06 14:00:18;;;;;;;3.60;1.40;;;;;;;;;;6135960;23;20013;-49
2022/01/06 14:02:44;;;;;;;4.45;1.45;;;;;;;;;;6137853;23;20018;-47
2022/01/06 14:05:10;;;;;;;2.53;1.55;;;;;;;;;;6136425;23;20013;-48
2022/01/06 14:07:36;;;;;;;1.17;1.08;;;;;;;;;;6136193;23;20017;-49
2022/01/06 14:10:05;;;;;;;3.08;1.27;;;;;;;;;;6135067;23;20547;-48
2022/01/06 14:12:30;;;;;;;2.60;1.40;;;;;;;;;;6136615;23;20038;-47
2022/01/06 14:14:55;;;;;;;2.75;1.27;;;;;;;;;;6137188;23;20014;-45
2022/01/06 14:17:21;;;;;;;2.08;1.10;;;;;;;;;;6138715;23;20009;-49
2022/01/06 14:19:46;;;;;;;1.40;1.30;;;;;;;;;;6139588;23;20029;-48
2022/01/06 14:22:11;;;;;;;2.53;1.27;;;;;;;;;;6139316;23;20010;-50
2022/01/06 14:24:36;;;;;;;2.35;1.20;;;;;;;;;;6139709;23;20632;-47
2022/01/06 14:27:02;;;;;;;0.80;0.80;;;;;;;;;;6139735;23;20006;-51
2022/01/06 14:29:28;;;;;;;1.63;1.33;;;;;;;;;;6139684;23;20032;-49
2022/01/06 14:31:54;;;;;;;1.52;1.20;;;;;;;;;;6139267;23;20451;-45
2022/01/06 14:34:19;;;;;;;1.98;0.80;;;;;;;;;;6137650;23;20092;-47
2022/01/06 14:36:44;;;;;;;4.35;1.25;;;;;;;;;;6140604;23;20425;-48
2022/01/06 14:39:10;;;;;;;3.72;1.33;;;;;;;;;;6141877;23;20441;-48
2022/01/06 14:41:35;;;;;;;4.65;1.10;;;;;;;;;;6140969;23;20105;-49
2022/01/06 14:44:00;;;;;;;3.40;0.90;;;;;;;;;;6141123;23;20440;-46
2022/01/06 14:46:26;;;;;;;3.58;0.90;;;;;;;;;;6141774;23;20009;-48
2022/01/06 14:48:51;;;;;;;3.00;1.10;;;;;;;;;;6141148;23;20043;-47
2022/01/06 14:51:16;;;;;;;4.57;0.93;;;;;;;;;;6139817;23;20605;-47